aviador You're here:

KDYA Decoded Metar

in
Report Time2017-10-19 21:55:00
UTC Time2017-10-19 22:01:39
Flight Rules vfr VFR
Wind350° at 05 kt
W.Decomp.*RWY 04: 3.2 kt HW 3.8 kt LCW
W.Rank350° ranks 8
Current wind is below 350° avg. (5.6)
Visibility9999 m
Phenomena:N/A
Clouds:N/A
Expected CloudBase > 4,800 ft AGL from Temp-Dew spread
CeilingNone
Temp25°C
Dew Point13°C (47% RH)
AAT24.1°C
QNH1022 hPa
Raw Report
METAR KDYA 192155Z AUTO 35005KT 10SM 25/13 A3018 RMK AO2 T02480128=

Extra information for KDYA:More info

Social comments